createdAt,value
2022-12-01T00:04:25.603Z,15.25
2022-12-01T00:09:47.878Z,17.08
2022-12-01T00:14:55.137Z,17.55
2022-12-01T00:20:00.085Z,15.60
2022-12-01T00:25:04.115Z,19.48
2022-12-01T00:30:11.605Z,18.05
2022-12-01T00:35:15.542Z,17.38
2022-12-01T00:40:18.895Z,15.45
2022-12-01T00:45:23.367Z,17.70
2022-12-01T00:50:27.131Z,19.43
2022-12-01T00:55:30.621Z,16.38
2022-12-01T01:00:38.658Z,14.75
2022-12-01T01:05:43.107Z,19.13
2022-12-01T01:10:48.037Z,17.03
2022-12-01T01:15:59.716Z,17.90
2022-12-01T01:21:05.291Z,17.27
2022-12-01T01:26:12.051Z,14.52
2022-12-01T01:31:18.612Z,17.98
2022-12-01T01:36:21.867Z,15.45
2022-12-01T01:41:25.353Z,15.65
2022-12-01T01:46:31.788Z,13.45
2022-12-01T01:51:40.599Z,16.63
2022-12-01T01:56:44.472Z,15.65
2022-12-01T02:01:55.035Z,15.68
2022-12-01T02:06:58.169Z,17.70
2022-12-01T02:12:12.506Z,18.38
2022-12-01T02:17:28.052Z,16.90
2022-12-01T02:22:41.749Z,17.67
2022-12-01T02:28:07.540Z,16.02
2022-12-01T02:33:18.246Z,16.75
2022-12-01T02:38:26.600Z,14.18
2022-12-01T02:43:35.215Z,12.55
2022-12-01T02:48:43.086Z,18.92
2022-12-01T02:53:46.728Z,15.98
2022-12-01T02:58:50.449Z,17.02
2022-12-01T03:04:19.750Z,16.85
2022-12-01T03:09:33.544Z,13.88
2022-12-01T03:14:41.962Z,19.73
2022-12-01T03:19:50.434Z,15.52
2022-12-01T03:24:57.382Z,20.20
2022-12-01T03:30:02.719Z,19.27
2022-12-01T03:35:11.772Z,18.27
2022-12-01T03:40:19.689Z,16.63
2022-12-01T03:45:29.917Z,18.30
2022-12-01T03:50:46.873Z,14.00
2022-12-01T03:55:56.417Z,17.85
2022-12-01T04:01:00.005Z,13.07
2022-12-01T04:06:05.206Z,14.40
2022-12-01T04:11:32.390Z,14.05
2022-12-01T04:16:36.709Z,13.63
2022-12-01T04:21:41.207Z,12.82
2022-12-01T04:26:46.126Z,15.50
2022-12-01T04:31:49.423Z,14.65
2022-12-01T04:36:53.970Z,14.25
2022-12-01T04:41:57.108Z,16.67
2022-12-01T04:47:00.244Z,17.35
2022-12-01T04:52:05.262Z,17.63
2022-12-01T04:57:08.403Z,17.45
2022-12-01T05:02:11.638Z,19.77
2022-12-01T05:07:17.921Z,21.63
2022-12-01T05:12:21.136Z,18.15
2022-12-01T05:17:24.393Z,16.33
2022-12-01T05:22:57.287Z,18.38
2022-12-01T05:27:51.979Z,17.73
2022-12-01T05:32:55.013Z,16.20
2022-12-01T05:38:03.182Z,20.92
2022-12-01T05:43:09.368Z,18.75
2022-12-01T05:48:12.568Z,17.13
2022-12-01T05:53:17.550Z,18.58
2022-12-01T05:58:20.732Z,16.33
2022-12-01T06:03:24.026Z,17.98
2022-12-01T06:08:28.618Z,17.52
2022-12-01T06:13:31.821Z,20.00
2022-12-01T06:18:36.509Z,18.75
2022-12-01T06:23:40.986Z,19.92
2022-12-01T06:28:44.152Z,21.43
2022-12-01T06:33:47.300Z,19.55
2022-12-01T06:38:51.705Z,17.85
2022-12-01T06:43:54.935Z,16.27
2022-12-01T06:48:58.050Z,18.80
2022-12-01T06:54:05.712Z,17.75
2022-12-01T06:59:09.209Z,17.38
2022-12-01T07:04:12.657Z,20.73
2022-12-01T07:09:17.202Z,20.23
2022-12-01T07:14:26.613Z,19.93
2022-12-01T07:19:29.777Z,18.85
2022-12-01T07:24:34.335Z,25.70
2022-12-01T07:29:37.414Z,22.58
2022-12-01T07:34:40.517Z,21.17
2022-12-01T07:39:44.940Z,22.45
2022-12-01T07:44:48.095Z,21.30
2022-12-01T07:49:51.528Z,26.13
2022-12-01T07:54:56.165Z,21.70
2022-12-01T07:59:59.347Z,24.63
2022-12-01T08:05:02.631Z,22.60
2022-12-01T08:10:08.305Z,21.92
2022-12-01T08:15:11.607Z,24.25
2022-12-01T08:20:18.434Z,23.63
2022-12-01T08:25:27.067Z,24.80
2022-12-01T08:30:30.276Z,26.73
2022-12-01T08:35:36.092Z,27.33
2022-12-01T08:40:40.622Z,28.02
2022-12-01T08:45:43.802Z,29.67
2022-12-01T08:50:46.936Z,27.15
2022-12-01T08:55:51.624Z,27.92
2022-12-01T09:01:01.425Z,29.30
2022-12-01T09:06:05.833Z,28.30
2022-12-01T09:11:12.447Z,26.93
2022-12-01T09:16:17.701Z,26.60
2022-12-01T09:21:25.489Z,27.38
2022-12-01T09:26:30.387Z,26.90
2022-12-01T09:31:34.143Z,21.77
2022-12-01T09:36:38.043Z,25.00
2022-12-01T09:41:45.153Z,23.85
2022-12-01T09:46:51.632Z,25.15
2022-12-01T09:51:55.460Z,25.35
2022-12-01T09:57:00.356Z,21.20
2022-12-01T10:02:23.738Z,21.60
2022-12-01T10:07:31.318Z,21.73
2022-12-01T10:12:36.300Z,23.30
2022-12-01T10:17:48.773Z,20.10
2022-12-01T10:23:19.452Z,19.25
2022-12-01T10:28:49.187Z,21.90
2022-12-01T10:34:00.767Z,24.58
2022-12-01T10:39:06.739Z,22.02
2022-12-01T10:44:12.226Z,19.45
2022-12-01T10:49:17.491Z,22.83
2022-12-01T10:59:31.130Z,22.02
2022-12-01T11:04:45.760Z,19.13
2022-12-01T11:10:08.145Z,18.00
2022-12-01T11:15:22.621Z,19.90
2022-12-01T11:20:32.722Z,18.87
2022-12-01T11:25:36.505Z,22.35
2022-12-01T11:38:29.946Z,21.25
2022-12-01T11:44:01.074Z,17.13
2022-12-01T11:49:05.226Z,20.13
2022-12-01T11:54:16.673Z,14.80
2022-12-01T11:59:23.951Z,17.60
2022-12-01T12:04:43.334Z,19.73
2022-12-01T12:10:15.803Z,19.70
2022-12-01T12:15:27.950Z,19.27
2022-12-01T12:20:41.044Z,17.83
2022-12-01T12:25:53.981Z,19.20
2022-12-01T12:31:06.675Z,19.00
2022-12-01T12:36:20.853Z,17.42
2022-12-01T12:41:35.443Z,19.63
2022-12-01T12:46:47.590Z,17.92
2022-12-01T12:51:55.729Z,17.80
2022-12-01T12:57:03.298Z,21.00
2022-12-01T13:02:13.814Z,17.40
2022-12-01T13:07:32.869Z,17.52
2022-12-01T13:12:41.847Z,18.25
2022-12-01T13:17:48.558Z,19.48
2022-12-01T13:22:53.530Z,19.98
2022-12-01T13:28:00.484Z,18.80
2022-12-01T13:33:05.545Z,15.23
2022-12-01T13:38:25.031Z,17.35
2022-12-01T13:43:29.772Z,15.35
2022-12-01T13:48:52.390Z,15.30
2022-12-01T13:53:58.338Z,18.83
2022-12-01T13:59:03.485Z,16.75
2022-12-01T14:09:31.615Z,17.35
2022-12-01T14:14:39.044Z,16.77
2022-12-01T14:19:46.925Z,16.65
2022-12-01T14:24:53.341Z,17.08
2022-12-01T14:29:58.062Z,17.85
2022-12-01T14:35:11.569Z,15.48
2022-12-01T14:40:25.600Z,12.68
2022-12-01T14:45:34.486Z,17.38
2022-12-01T14:50:46.455Z,18.13
2022-12-01T14:55:54.624Z,16.15
2022-12-01T15:01:07.003Z,16.65
2022-12-01T15:06:15.619Z,18.38
2022-12-01T15:11:25.641Z,17.20
2022-12-01T15:16:32.253Z,18.48
2022-12-01T15:21:35.875Z,16.63
2022-12-01T15:26:48.390Z,16.10
2022-12-01T15:31:54.768Z,17.80
2022-12-01T15:36:59.223Z,17.38
2022-12-01T15:42:03.648Z,17.10
2022-12-01T15:47:32.610Z,19.07
2022-12-01T15:52:43.553Z,18.83
2022-12-01T15:57:47.121Z,20.48
2022-12-01T16:02:54.681Z,17.38
2022-12-01T16:08:13.265Z,17.83
2022-12-01T16:13:41.907Z,20.33
2022-12-01T16:18:53.812Z,16.10
2022-12-01T16:24:01.147Z,18.63
2022-12-01T16:29:19.491Z,16.92
2022-12-01T16:34:45.132Z,19.15
2022-12-01T16:39:48.546Z,19.25
2022-12-01T16:44:52.482Z,17.80
2022-12-01T16:49:57.417Z,21.90
2022-12-01T16:55:00.540Z,20.67
2022-12-01T17:00:04.321Z,18.33
2022-12-01T17:05:10.642Z,20.92
2022-12-01T17:10:14.338Z,16.50
2022-12-01T17:15:17.831Z,17.67
2022-12-01T17:20:22.506Z,20.50
2022-12-01T17:25:25.859Z,15.07
2022-12-01T17:30:29.188Z,17.98
2022-12-01T17:35:33.798Z,19.15
2022-12-01T17:40:37.120Z,20.60
2022-12-01T17:45:42.239Z,15.23
2022-12-01T17:55:49.985Z,15.50
2022-12-01T18:00:54.546Z,18.23
2022-12-01T18:06:00.948Z,17.38
2022-12-01T18:11:10.222Z,18.73
2022-12-01T18:16:15.691Z,16.45
2022-12-01T18:21:22.868Z,16.00
2022-12-01T18:26:27.841Z,17.73
2022-12-01T18:31:31.488Z,15.90
2022-12-01T18:36:38.603Z,17.20
2022-12-01T18:41:42.175Z,16.52
2022-12-01T18:46:45.540Z,18.23
2022-12-01T18:51:50.246Z,19.23
2022-12-01T18:56:55.046Z,16.25
2022-12-01T19:01:58.274Z,17.52
2022-12-01T19:07:03.838Z,18.23
2022-12-01T19:12:08.106Z,20.23
2022-12-01T19:17:11.407Z,18.27
2022-12-01T19:22:16.181Z,16.88
2022-12-01T19:27:19.634Z,18.65
2022-12-01T19:32:24.357Z,28.17
2022-12-01T19:37:28.915Z,20.00
2022-12-01T19:42:32.113Z,20.15
2022-12-01T19:47:36.645Z,18.30
2022-12-01T19:52:41.587Z,16.00
2022-12-01T19:57:50.469Z,16.35
2022-12-01T20:02:53.640Z,16.88
2022-12-01T20:07:58.435Z,14.88
2022-12-01T20:13:02.004Z,19.85
2022-12-01T20:18:05.334Z,17.13
2022-12-01T20:23:09.862Z,16.42
2022-12-01T20:28:13.082Z,16.15
2022-12-01T20:33:16.711Z,15.70
2022-12-01T20:38:27.060Z,18.15
2022-12-01T20:43:30.803Z,17.10
2022-12-01T20:48:34.826Z,17.58
2022-12-01T20:53:39.381Z,18.55
2022-12-01T20:58:43.341Z,16.25
2022-12-01T21:03:46.718Z,18.60
2022-12-01T21:08:52.535Z,16.98
2022-12-01T21:13:55.899Z,16.00
2022-12-01T21:19:01.137Z,19.67
2022-12-01T21:29:19.538Z,16.42
2022-12-01T21:34:24.805Z,17.77
2022-12-01T21:44:37.365Z,19.15
2022-12-01T21:49:40.770Z,16.42
2022-12-01T21:54:45.563Z,15.48
2022-12-01T21:59:48.822Z,17.35
2022-12-01T22:04:52.353Z,17.77
2022-12-01T22:09:56.880Z,17.20
2022-12-01T22:15:01.486Z,16.02
2022-12-01T22:20:20.863Z,14.90
2022-12-01T22:25:27.245Z,15.98
2022-12-01T22:30:30.476Z,15.07
2022-12-01T22:35:36.391Z,15.80
2022-12-01T22:40:45.530Z,13.77
2022-12-01T22:45:50.687Z,15.15
2022-12-01T22:50:55.317Z,13.85
2022-12-01T22:56:00.791Z,14.07
2022-12-01T23:01:22.632Z,12.60
2022-12-01T23:07:07.067Z,12.75
2022-12-01T23:12:24.361Z,16.65
2022-12-01T23:17:32.546Z,15.98
2022-12-01T23:22:36.215Z,13.93
2022-12-01T23:27:41.193Z,15.75
2022-12-01T23:32:46.560Z,14.90
2022-12-01T23:42:54.763Z,13.50
2022-12-01T23:47:57.873Z,16.48
2022-12-01T23:53:01.973Z,12.88
2022-12-01T23:58:13.404Z,16.02
